Time;durP1;ratioP1;P1;durP2;ratioP2;P2;SDS_P1;SDS_P2;PMS_P1;PMS_P2;Temp;Humidity;BMP_temperature;BMP_pressure;BME280_temperature;BME280_humidity;BME280_pressure;Samples;Min_cycle;Max_cycle;Signal;HPM_P1;HPM_P2
2022/10/26 00:01:16;;;;;;;;;3.75;3.75;;;;;10.70;80.81;99806.09;5097174;28;8822;-59
2022/10/26 00:03:44;;;;;;;;;1.50;1.50;;;;;10.73;80.68;99797.88;5097386;28;8822;-60
2022/10/26 00:06:12;;;;;;;;;2.50;2.00;;;;;10.74;80.57;99802.22;5097212;28;8903;-59
2022/10/26 00:08:39;;;;;;;;;3.00;3.00;;;;;10.73;81.24;99802.34;5097483;28;8814;-60
2022/10/26 00:11:07;;;;;;;;;3.50;3.50;;;;;10.74;80.72;99799.56;5097462;28;8829;-59
2022/10/26 00:13:35;;;;;;;;;3.25;3.25;;;;;10.74;80.68;99794.25;5096580;28;8826;-59
2022/10/26 00:16:02;;;;;;;;;3.00;1.00;;;;;10.74;80.52;99793.38;5097015;28;8790;-59
2022/10/26 00:18:30;;;;;;;;;5.50;5.00;;;;;10.75;81.05;99795.94;5096082;28;8822;-59
2022/10/26 00:21:00;;;;;;;;;6.25;6.00;;;;;10.77;80.30;99793.97;5097290;28;9471;-60
2022/10/26 00:23:28;;;;;;;;;0.25;0.00;;;;;10.81;80.66;99799.91;5096996;28;8802;-60
2022/10/26 00:25:55;;;;;;;;;1.00;1.00;;;;;10.84;80.88;99797.81;5097048;28;8837;-60
2022/10/26 00:28:23;;;;;;;;;2.50;1.00;;;;;10.87;81.05;99794.06;5097088;28;8854;-60
2022/10/26 00:30:50;;;;;;;;;3.00;3.00;;;;;10.89;80.81;99795.63;5096776;28;8918;-60
2022/10/26 00:33:18;;;;;;;;;3.00;3.00;;;;;10.92;80.60;99791.88;5096522;28;8838;-59
2022/10/26 00:35:46;;;;;;;;;2.50;2.50;;;;;10.95;79.91;99788.94;5097165;28;8821;-60
2022/10/26 00:38:14;;;;;;;;;3.00;3.00;;;;;10.95;79.73;99786.28;5096284;28;8883;-59
2022/10/26 00:40:43;;;;;;;;;3.00;3.00;;;;;10.97;80.23;99790.50;5096618;28;8893;-59
2022/10/26 00:43:10;;;;;;;;;3.00;3.00;;;;;10.98;80.44;99784.19;5096771;28;9586;-60
2022/10/26 00:45:38;;;;;;;;;6.00;6.00;;;;;10.99;80.48;99783.22;5096852;28;8895;-60
2022/10/26 00:48:06;;;;;;;;;5.75;4.00;;;;;10.99;80.02;99782.41;5096305;28;8830;-60
2022/10/26 00:50:33;;;;;;;;;4.50;4.00;;;;;11.00;80.28;99784.09;5096742;28;8830;-61
2022/10/26 00:53:02;;;;;;;;;6.00;6.00;;;;;11.01;80.37;99785.78;5096445;28;8891;-60
2022/10/26 00:55:29;;;;;;;;;3.25;3.25;;;;;11.03;80.38;99779.34;5096600;28;8838;-60
2022/10/26 00:57:57;;;;;;;;;4.00;3.75;;;;;11.06;79.63;99789.72;5096537;28;8861;-60
2022/10/26 01:00:25;;;;;;;;;6.00;5.50;;;;;11.07;79.98;99783.44;5096628;28;8846;-59
2022/10/26 01:02:53;;;;;;;;;5.00;4.00;;;;;11.09;79.85;99784.13;5096708;28;8845;-59
2022/10/26 01:05:21;;;;;;;;;4.50;4.50;;;;;11.11;80.01;99786.69;5096167;28;8830;-60
2022/10/26 01:07:48;;;;;;;;;4.50;4.00;;;;;11.15;79.66;99788.94;5096051;28;8899;-60
2022/10/26 01:10:17;;;;;;;;;6.00;3.00;;;;;11.18;80.08;99785.19;5096434;28;8833;-61
2022/10/26 01:12:45;;;;;;;;;0.75;0.00;;;;;11.19;79.88;99782.41;5096024;28;8814;-60
2022/10/26 01:15:13;;;;;;;;;6.00;5.50;;;;;11.22;79.57;99784.78;5096355;28;8934;-60
2022/10/26 01:17:40;;;;;;;;;3.25;3.25;;;;;11.26;79.86;99782.72;5095904;28;8818;-60
2022/10/26 01:20:08;;;;;;;;;4.00;3.75;;;;;11.28;79.91;99773.63;5095998;28;8822;-60
2022/10/26 01:22:36;;;;;;;;;3.75;3.25;;;;;11.32;80.00;99774.19;5096301;28;8861;-60
2022/10/26 01:25:04;;;;;;;;;3.00;3.00;;;;;11.33;79.99;99771.41;5095462;28;8838;-60
2022/10/26 01:27:32;;;;;;;;;0.00;0.00;;;;;11.35;79.82;99774.78;5096413;28;8934;-60
2022/10/26 01:29:59;;;;;;;;;3.25;3.00;;;;;11.36;79.37;99759.66;5095724;28;8867;-59
2022/10/26 01:32:27;;;;;;;;;5.50;5.50;;;;;11.36;80.00;99754.31;5096055;28;8841;-62
2022/10/26 01:34:55;;;;;;;;;0.25;0.25;;;;;11.35;79.56;99753.47;5096574;28;8822;-60
2022/10/26 01:37:23;;;;;;;;;3.50;3.25;;;;;11.37;79.60;99756.84;5096336;28;8825;-59
2022/10/26 01:39:50;;;;;;;;;3.00;3.00;;;;;11.39;79.99;99754.03;5095881;28;8886;-60
2022/10/26 01:42:18;;;;;;;;;3.00;3.00;;;;;11.39;80.10;99751.38;5095613;28;8895;-60
2022/10/26 01:44:46;;;;;;;;;5.00;3.75;;;;;11.39;79.55;99749.53;5095975;28;8814;-60
2022/10/26 01:47:15;;;;;;;;;3.75;3.75;;;;;11.39;79.50;99746.88;5096174;28;8826;-60
2022/10/26 01:49:43;;;;;;;;;3.25;3.25;;;;;11.39;79.34;99746.03;5095653;28;8879;-60
2022/10/26 01:52:11;;;;;;;;;4.00;3.75;;;;;11.37;79.62;99753.34;5095726;28;8905;-59
2022/10/26 01:54:38;;;;;;;;;3.00;3.00;;;;;11.35;79.79;99748.13;5095937;28;8826;-59
2022/10/26 01:57:06;;;;;;;;;5.50;5.50;;;;;11.33;79.46;99750.09;5096263;28;9626;-60
2022/10/26 01:59:34;;;;;;;;;3.50;3.50;;;;;11.33;79.91;99752.75;5095374;28;8810;-60
2022/10/26 02:02:02;;;;;;;;;3.00;2.00;;;;;11.33;79.80;99746.56;5095921;28;8883;-60
2022/10/26 02:04:29;;;;;;;;;3.25;3.00;;;;;11.32;80.16;99745.75;5095900;28;8918;-59
2022/10/26 02:06:57;;;;;;;;;3.00;1.50;;;;;11.33;79.89;99744.75;5095925;28;8918;-59
2022/10/26 02:09:25;;;;;;;;;3.00;1.50;;;;;11.32;80.14;99737.75;5095120;28;8822;-59
2022/10/26 02:11:53;;;;;;;;;3.25;3.00;;;;;11.33;80.04;99734.09;5095879;28;8830;-60
2022/10/26 02:14:21;;;;;;;;;3.25;3.25;;;;;11.34;80.16;99726.94;5095577;28;8833;-60
2022/10/26 02:16:48;;;;;;;;;1.00;1.00;;;;;11.35;80.13;99731.28;5095183;28;8829;-61
2022/10/26 02:19:16;;;;;;;;;1.00;1.00;;;;;11.36;79.80;99723.16;5095045;28;8822;-59
2022/10/26 02:21:43;;;;;;;;;1.50;1.50;;;;;11.37;79.68;99722.19;5094971;28;8864;-60
2022/10/26 02:24:11;;;;;;;;;3.25;3.25;;;;;11.39;79.61;99722.88;5095183;28;8834;-60
2022/10/26 02:26:39;;;;;;;;;3.25;3.00;;;;;11.40;80.07;99723.75;5095565;28;8830;-60
2022/10/26 02:29:06;;;;;;;;;3.00;3.00;;;;;11.42;79.67;99721.78;5094880;28;8813;-61
2022/10/26 02:31:34;;;;;;;;;2.00;2.00;;;;;11.44;79.83;99714.50;5094668;28;8830;-60
2022/10/26 02:34:02;;;;;;;;;1.00;1.00;;;;;11.47;79.53;99709.75;5094820;28;8822;-59
2022/10/26 02:36:30;;;;;;;;;2.00;2.00;;;;;11.50;79.65;99713.94;5094848;28;8822;-61
2022/10/26 02:38:58;;;;;;;;;2.00;1.50;;;;;11.51;79.73;99705.00;5095530;28;8818;-60
2022/10/26 02:41:40;;;;;;;;;1.00;1.00;;;;;11.55;79.66;99701.06;5097246;28;8867;-60
2022/10/26 02:44:08;;;;;;;;;3.75;3.00;;;;;11.58;79.79;99704.34;5099430;28;8880;-59
2022/10/26 02:46:36;;;;;;;;;1.50;1.50;;;;;11.59;79.72;99702.53;5099244;28;8954;-61
2022/10/26 02:49:04;;;;;;;;;3.00;1.50;;;;;11.59;79.57;99698.03;5098369;28;8899;-59
2022/10/26 02:51:31;;;;;;;;;3.00;3.00;;;;;11.58;79.71;99696.34;5099015;28;8902;-60
2022/10/26 02:53:59;;;;;;;;;1.00;1.00;;;;;11.58;79.53;99690.16;5098889;28;8826;-60
2022/10/26 02:56:26;;;;;;;;;0.75;0.50;;;;;11.56;79.32;99695.63;5098213;28;8822;-59
2022/10/26 02:58:54;;;;;;;;;2.50;2.50;;;;;11.55;79.81;99690.41;5098806;28;9568;-60
2022/10/26 03:01:22;;;;;;;;;2.00;2.00;;;;;11.57;79.87;99694.63;5098708;28;8899;-62
2022/10/26 03:03:49;;;;;;;;;1.00;0.25;;;;;11.58;79.50;99684.81;5098703;28;8818;-59
2022/10/26 03:06:17;;;;;;;;;2.50;1.50;;;;;11.59;79.98;99683.88;5098743;28;8848;-60
2022/10/26 03:08:45;;;;;;;;;0.25;0.25;;;;;11.61;79.48;99680.06;5098688;28;8918;-61
2022/10/26 03:11:12;;;;;;;;;3.00;3.00;;;;;11.63;79.75;99680.81;5098495;28;8834;-60
2022/10/26 03:13:41;;;;;;;;;1.00;1.00;;;;;11.66;79.22;99682.31;5098290;28;8891;-60
2022/10/26 03:16:08;;;;;;;;;2.00;2.00;;;;;11.67;79.45;99684.88;5098725;28;9491;-60
2022/10/26 03:18:36;;;;;;;;;1.00;1.00;;;;;11.69;79.23;99677.56;5097720;28;8890;-60
2022/10/26 03:21:04;;;;;;;;;1.00;1.00;;;;;11.72;79.53;99679.97;5097606;28;8896;-60
2022/10/26 03:23:31;;;;;;;;;1.00;0.50;;;;;11.76;79.22;99685.91;5097998;28;8886;-60
2022/10/26 03:25:59;;;;;;;;;1.00;1.00;;;;;11.78;79.61;99676.78;5097790;28;8813;-60
2022/10/26 03:28:27;;;;;;;;;1.00;1.00;;;;;11.80;79.59;99681.94;5097541;28;8953;-60
2022/10/26 03:30:54;;;;;;;;;1.00;1.00;;;;;11.83;78.87;99674.53;5097469;28;8932;-59
2022/10/26 03:33:22;;;;;;;;;1.00;1.00;;;;;11.85;79.43;99675.25;5097840;28;8842;-59
2022/10/26 03:35:55;;;;;;;;;2.50;2.50;;;;;11.89;79.48;99668.66;5097515;28;8852;-59
2022/10/26 03:38:23;;;;;;;;;1.00;1.00;;;;;11.91;79.50;99679.19;5097509;28;8834;-60
2022/10/26 03:40:51;;;;;;;;;1.00;1.00;;;;;11.92;79.02;99673.72;5097302;28;8806;-59
2022/10/26 03:43:18;;;;;;;;;1.00;1.00;;;;;11.93;79.21;99673.56;5097557;28;8814;-60
2022/10/26 03:45:46;;;;;;;;;1.50;1.50;;;;;11.94;79.01;99677.09;5097801;28;8818;-60
2022/10/26 03:48:13;;;;;;;;;3.00;3.00;;;;;11.97;78.68;99678.66;5097115;28;8841;-60
2022/10/26 03:50:41;;;;;;;;;1.00;1.00;;;;;11.98;79.44;99678.50;5096948;28;8904;-60
2022/10/26 03:53:09;;;;;;;;;3.00;1.00;;;;;11.98;79.41;99683.81;5096145;28;8877;-60
2022/10/26 03:55:36;;;;;;;;;3.00;3.00;;;;;11.98;79.06;99679.34;5097199;28;8902;-59
2022/10/26 03:58:04;;;;;;;;;5.00;4.00;;;;;12.00;79.01;99676.56;5097139;28;8838;-59
2022/10/26 04:00:32;;;;;;;;;3.50;3.50;;;;;12.01;79.05;99678.25;5076914;28;8836;-59
2022/10/26 04:03:00;;;;;;;;;3.25;3.25;;;;;12.04;79.50;99678.81;5076546;28;9591;-59
2022/10/26 04:05:27;;;;;;;;;3.00;3.00;;;;;12.07;79.33;99669.69;5076988;28;8919;-59
2022/10/26 04:07:55;;;;;;;;;1.00;1.00;;;;;12.11;78.90;99668.41;5076338;28;9545;-60
2022/10/26 04:10:22;;;;;;;;;3.50;1.00;;;;;12.15;78.93;99659.16;5095391;28;8814;-59
2022/10/26 04:12:50;;;;;;;;;3.25;2.50;;;;;12.18;79.43;99658.88;5097083;28;8914;-60
2022/10/26 04:15:18;;;;;;;;;3.00;3.00;;;;;12.21;79.16;99656.75;5096937;28;8903;-59
2022/10/26 04:17:46;;;;;;;;;3.00;3.00;;;;;12.24;78.97;99658.31;5096893;28;8914;-60
2022/10/26 04:20:14;;;;;;;;;6.00;4.00;;;;;12.26;78.74;99669.69;5096917;28;8810;-60
2022/10/26 04:22:41;;;;;;;;;1.00;1.00;;;;;12.26;78.73;99662.53;5096638;28;8826;-59
2022/10/26 04:25:10;;;;;;;;;1.00;0.75;;;;;12.28;79.00;99668.56;5096970;28;8837;-59
2022/10/26 04:27:38;;;;;;;;;1.00;1.00;;;;;12.31;78.85;99664.78;5096625;28;8981;-60
2022/10/26 04:30:08;;;;;;;;;1.00;1.00;;;;;12.33;78.52;99662.81;5096420;28;8798;-60
2022/10/26 04:32:36;;;;;;;;;2.00;1.50;;;;;12.37;78.64;99665.06;5096758;28;8953;-60
2022/10/26 04:35:03;;;;;;;;;3.00;2.00;;;;;12.41;78.29;99662.97;5095893;28;8919;-60
2022/10/26 04:37:31;;;;;;;;;2.50;1.00;;;;;12.47;78.39;99659.72;5096274;28;8838;-59
2022/10/26 04:39:59;;;;;;;;;4.00;3.00;;;;;12.55;78.58;99662.53;5095350;28;8814;-59
2022/10/26 04:42:27;;;;;;;;;1.00;1.00;;;;;12.65;78.60;99663.38;5096127;28;8818;-60
2022/10/26 04:44:54;;;;;;;;;1.00;1.00;;;;;12.82;78.59;99657.28;5096070;28;8891;-59
2022/10/26 04:47:22;;;;;;;;;1.00;1.00;;;;;12.99;77.68;99665.44;5096566;28;8830;-60
2022/10/26 04:49:50;;;;;;;;;1.00;1.00;;;;;13.24;76.93;99661.31;5095753;28;8965;-60
2022/10/26 04:52:18;;;;;;;;;1.00;1.00;;;;;13.45;76.79;99665.44;5096273;28;8907;-60
2022/10/26 04:54:45;;;;;;;;;1.00;1.00;;;;;13.63;76.83;99665.50;5096083;28;8915;-59
2022/10/26 04:57:13;;;;;;;;;0.00;0.00;;;;;13.79;76.33;99669.25;5096068;28;8830;-61
2022/10/26 04:59:40;;;;;;;;;0.75;0.75;;;;;13.95;75.89;99665.91;5095760;28;9584;-61
2022/10/26 05:02:09;;;;;;;;;1.00;1.00;;;;;14.05;75.57;99669.38;5095391;28;8830;-59
2022/10/26 05:04:37;;;;;;;;;0.00;0.00;;;;;14.17;75.43;99663.66;5095052;28;8825;-61
2022/10/26 05:07:05;;;;;;;;;2.00;2.00;;;;;14.27;75.45;99669.00;5095314;28;8883;-61
2022/10/26 05:09:32;;;;;;;;;0.60;0.60;;;;;14.36;74.97;99662.72;5094666;28;8810;-59
2022/10/26 05:12:00;;;;;;;;;0.00;0.00;;;;;14.42;75.03;99670.97;5094874;28;8849;-60
2022/10/26 05:14:28;;;;;;;;;1.00;1.00;;;;;14.52;75.24;99676.25;5095012;28;8830;-60
2022/10/26 05:16:56;;;;;;;;;1.00;1.00;;;;;14.61;74.55;99661.94;5094551;28;8837;-61
2022/10/26 05:19:24;;;;;;;;;0.00;0.00;;;;;14.70;74.93;99666.34;5094198;28;8829;-61
2022/10/26 05:21:52;;;;;;;;;0.00;0.00;;;;;14.77;74.39;99662.06;5094478;28;8927;-60
2022/10/26 05:24:20;;;;;;;;;0.80;0.60;;;;;14.80;74.97;99659.09;5093353;28;8858;-62
2022/10/26 05:26:48;;;;;;;;;0.00;0.00;;;;;14.80;74.79;99656.41;5092612;28;8927;-60
2022/10/26 05:29:16;;;;;;;;;1.00;1.00;;;;;14.81;74.75;99653.56;5092713;28;8838;-60
2022/10/26 05:31:43;;;;;;;;;0.20;0.20;;;;;14.84;75.08;99653.25;5094292;28;8834;-60
2022/10/26 05:34:11;;;;;;;;;1.00;1.00;;;;;14.85;74.49;99657.63;5093154;28;8914;-61
2022/10/26 05:36:38;;;;;;;;;0.40;0.40;;;;;14.88;74.42;99653.78;5093334;28;8846;-62
2022/10/26 05:39:06;;;;;;;;;0.00;0.00;;;;;14.92;74.62;99655.16;5093649;28;8907;-60
2022/10/26 05:41:34;;;;;;;;;0.80;0.80;;;;;14.92;74.59;99665.88;5093041;28;8902;-60
2022/10/26 05:44:02;;;;;;;;;0.00;0.00;;;;;14.92;74.59;99661.38;5091874;28;8838;-62
2022/10/26 05:46:30;;;;;;;;;0.40;0.40;;;;;14.93;75.00;99651.47;5092081;28;8853;-60
2022/10/26 05:48:58;;;;;;;;;0.80;0.20;;;;;14.98;74.70;99662.56;5090170;28;8818;-59
2022/10/26 05:51:27;;;;;;;;;0.00;0.00;;;;;14.99;74.79;99665.09;5090597;28;8802;-59
2022/10/26 05:53:55;;;;;;;;;0.00;0.00;;;;;15.03;74.62;99669.13;5090082;28;8906;-59
2022/10/26 05:56:23;;;;;;;;;0.20;0.20;;;;;15.05;74.84;99669.00;5091005;28;8903;-61
2022/10/26 05:58:50;;;;;;;;;1.00;0.00;;;;;15.07;75.15;99673.22;5090203;28;8927;-61
2022/10/26 06:01:18;;;;;;;;;0.00;0.00;;;;;15.10;74.27;99672.06;5089834;28;8845;-62
2022/10/26 06:03:46;;;;;;;;;0.60;0.60;;;;;15.10;74.52;99669.38;5089089;28;8968;-59
2022/10/26 06:06:14;;;;;;;;;0.00;0.00;;;;;15.10;74.65;99672.06;5088523;28;8926;-60
2022/10/26 06:08:42;;;;;;;;;0.00;0.00;;;;;15.12;74.20;99675.41;5089106;28;8854;-60
2022/10/26 06:11:10;;;;;;;;;1.00;1.00;;;;;15.13;74.25;99679.78;5088894;28;8846;-61
2022/10/26 06:13:37;;;;;;;;;1.00;0.00;;;;;15.14;74.45;99681.47;5089732;28;9539;-59
2022/10/26 06:16:05;;;;;;;;;0.20;0.00;;;;;15.13;74.40;99683.31;5090651;28;8834;-60
2022/10/26 06:18:34;;;;;;;;;0.00;0.00;;;;;15.13;74.27;99672.59;5093483;28;8922;-59
2022/10/26 06:21:01;;;;;;;;;0.20;0.20;;;;;15.13;74.72;99679.78;5094125;28;8916;-60
2022/10/26 06:23:29;;;;;;;;;0.20;0.20;;;;;15.12;74.50;99687.00;5094268;28;8914;-59
2022/10/26 06:25:57;;;;;;;;;1.00;1.00;;;;;15.11;74.48;99687.16;5094953;28;8818;-60
2022/10/26 06:28:24;;;;;;;;;0.40;0.40;;;;;15.08;74.29;99684.75;5095606;28;8838;-60
2022/10/26 06:30:52;;;;;;;;;0.60;0.60;;;;;15.02;74.68;99680.88;5095468;28;8841;-60
2022/10/26 06:33:19;;;;;;;;;1.00;1.00;;;;;14.95;74.85;99673.63;5096558;28;9528;-59
2022/10/26 06:35:56;;;;;;;;;0.00;0.00;;;;;14.90;75.42;99684.81;5094939;28;8833;-59
2022/10/26 06:38:24;;;;;;;;;0.00;0.00;;;;;14.88;75.19;99680.59;5094970;28;8884;-61
2022/10/26 06:40:52;;;;;;;;;0.40;0.40;;;;;14.84;75.03;99684.56;5094313;28;8856;-60
2022/10/26 06:43:20;;;;;;;;;1.00;1.00;;;;;14.87;75.83;99684.28;5094398;28;8895;-59
2022/10/26 06:45:48;;;;;;;;;0.00;0.00;;;;;14.91;75.44;99685.66;5096034;28;8849;-61
2022/10/26 06:48:15;;;;;;;;;0.00;0.00;;;;;14.94;75.03;99688.03;5095360;28;8837;-60
2022/10/26 06:50:43;;;;;;;;;1.00;1.00;;;;;14.97;74.98;99690.38;5094940;28;9524;-62
2022/10/26 06:53:11;;;;;;;;;0.00;0.00;;;;;15.01;74.53;99687.22;5095045;28;9557;-59
2022/10/26 06:55:39;;;;;;;;;1.80;1.40;;;;;15.01;74.98;99691.78;5093632;28;8877;-59
2022/10/26 06:58:07;;;;;;;;;0.40;0.40;;;;;15.04;75.08;99684.25;5093357;28;8838;-60
2022/10/26 07:00:34;;;;;;;;;0.20;0.20;;;;;15.06;74.59;99686.75;5092098;28;9594;-60
2022/10/26 07:03:02;;;;;;;;;0.20;0.20;;;;;15.08;74.41;99687.44;5092044;28;8954;-61
2022/10/26 07:05:30;;;;;;;;;0.60;0.60;;;;;15.09;74.76;99686.47;5091681;28;8840;-60
2022/10/26 07:07:58;;;;;;;;;4.40;1.40;;;;;15.09;74.92;99683.78;5092897;28;8817;-61
2022/10/26 07:10:26;;;;;;;;;0.00;0.00;;;;;15.10;74.44;99680.09;5093821;28;9278;-60
2022/10/26 07:12:53;;;;;;;;;1.00;0.20;;;;;15.09;74.93;99681.09;5092910;28;8856;-59
2022/10/26 07:15:22;;;;;;;;;2.20;1.00;;;;;15.04;74.50;99675.34;5092601;28;8826;-60
2022/10/26 07:17:50;;;;;;;;;0.00;0.00;;;;;14.99;74.76;99677.66;5093203;28;8840;-60
2022/10/26 07:20:18;;;;;;;;;0.20;0.20;;;;;14.95;75.15;99682.50;5093013;28;8920;-60
2022/10/26 07:22:46;;;;;;;;;1.00;1.00;;;;;14.92;75.26;99676.59;5094054;28;8976;-59
2022/10/26 07:25:14;;;;;;;;;0.00;0.00;;;;;14.88;75.47;99684.09;5093564;28;8846;-60
2022/10/26 07:27:42;;;;;;;;;1.00;0.40;;;;;14.88;75.18;99688.66;5094228;28;8923;-60
2022/10/26 07:30:10;;;;;;;;;0.20;0.20;;;;;14.88;75.39;99694.84;5094752;28;8818;-60
2022/10/26 07:32:37;;;;;;;;;0.60;0.60;;;;;14.89;74.80;99698.38;5094183;28;8842;-59
2022/10/26 07:35:05;;;;;;;;;0.00;0.00;;;;;14.91;75.69;99691.00;5093948;28;8830;-61
2022/10/26 07:37:34;;;;;;;;;1.80;1.00;;;;;14.91;75.54;99691.84;5094600;28;8830;-60
2022/10/26 07:40:02;;;;;;;;;0.00;0.00;;;;;14.93;75.16;99695.22;5093986;28;8848;-60
2022/10/26 07:42:33;;;;;;;;;1.00;1.00;;;;;14.96;75.63;99696.75;5094002;28;8850;-59
2022/10/26 07:45:01;;;;;;;;;1.00;0.40;;;;;15.00;75.00;99698.09;5093506;28;8840;-60
2022/10/26 07:47:29;;;;;;;;;3.00;2.60;;;;;15.02;75.21;99696.97;5093386;28;8898;-60
2022/10/26 07:49:56;;;;;;;;;1.00;1.00;;;;;15.06;74.82;99701.03;5093051;28;8905;-59
2022/10/26 07:52:25;;;;;;;;;1.00;1.00;;;;;15.13;74.90;99701.25;5093143;28;8838;-60
2022/10/26 07:54:52;;;;;;;;;1.00;1.00;;;;;15.18;75.01;99704.31;5093961;28;8830;-60
2022/10/26 07:57:20;;;;;;;;;0.00;0.00;;;;;15.22;74.97;99706.50;5093470;28;8872;-61
2022/10/26 07:59:48;;;;;;;;;0.00;0.00;;;;;15.29;74.63;99704.03;5094019;28;8910;-60
2022/10/26 08:02:16;;;;;;;;;0.40;0.40;;;;;15.34;74.12;99699.94;5094375;28;9500;-59
2022/10/26 08:04:44;;;;;;;;;3.80;3.00;;;;;15.40;74.43;99698.44;5094118;28;8842;-63
2022/10/26 08:07:12;;;;;;;;;1.00;1.00;;;;;15.45;74.52;99709.53;5094106;28;8825;-60
2022/10/26 08:09:40;;;;;;;;;1.80;1.00;;;;;15.50;74.17;99717.97;5093444;28;8965;-61
2022/10/26 08:12:08;;;;;;;;;1.00;1.00;;;;;15.56;73.84;99709.28;5093185;28;8846;-61
2022/10/26 08:14:36;;;;;;;;;2.60;1.40;;;;;15.61;74.17;99715.84;5093594;28;8942;-61
2022/10/26 08:17:04;;;;;;;;;0.40;0.40;;;;;15.69;74.25;99726.63;5093750;28;8857;-61
2022/10/26 08:19:32;;;;;;;;;0.80;0.80;;;;;15.80;73.88;99722.81;5093769;28;8838;-60
2022/10/26 08:22:00;;;;;;;;;0.20;0.20;;;;;15.88;73.56;99710.28;5091708;28;8834;-60
2022/10/26 08:24:27;;;;;;;;;0.00;0.00;;;;;15.93;73.32;99713.31;5091709;28;8809;-61
2022/10/26 08:26:55;;;;;;;;;0.40;0.00;;;;;16.06;73.42;99719.09;5092254;28;8899;-63
2022/10/26 08:29:23;;;;;;;;;0.00;0.00;;;;;16.25;73.35;99718.84;5092985;28;8818;-62
2022/10/26 08:31:52;;;;;;;;;0.00;0.00;;;;;16.45;72.81;99718.41;5092663;28;8841;-60
2022/10/26 08:34:20;;;;;;;;;0.00;0.00;;;;;16.60;72.44;99707.84;5092620;28;8837;-62
2022/10/26 08:36:49;;;;;;;;;1.00;1.00;;;;;16.67;71.87;99715.09;5093412;28;8856;-60
2022/10/26 08:39:16;;;;;;;;;0.00;0.00;;;;;16.70;71.95;99719.31;5092252;28;8853;-60
2022/10/26 08:41:44;;;;;;;;;0.00;0.00;;;;;16.75;71.70;99723.16;5092703;28;9168;-62
2022/10/26 08:44:13;;;;;;;;;1.00;0.00;;;;;16.92;71.44;99721.31;5091018;28;8826;-61
2022/10/26 08:46:44;;;;;;;;;2.60;1.00;;;;;17.05;71.33;99713.59;5091975;28;8826;-60
2022/10/26 08:49:12;;;;;;;;;1.00;1.00;;;;;17.20;70.83;99717.28;5091105;28;8841;-61
2022/10/26 08:51:40;;;;;;;;;0.20;0.00;;;;;17.35;70.47;99716.44;5091476;28;8838;-61
2022/10/26 08:54:08;;;;;;;;;1.00;0.40;;;;;17.50;70.54;99708.53;5090726;28;8822;-60
2022/10/26 08:56:37;;;;;;;;;1.00;1.00;;;;;17.70;69.73;99710.66;5089151;28;8956;-60
2022/10/26 08:59:04;;;;;;;;;1.00;1.00;;;;;17.88;69.98;99708.59;5089217;28;8826;-61
2022/10/26 09:01:32;;;;;;;;;1.00;1.00;;;;;17.99;69.53;99708.19;5089323;28;8961;-60
2022/10/26 09:04:01;;;;;;;;;0.20;0.20;;;;;18.04;69.10;99702.28;5089348;28;9184;-61
2022/10/26 09:06:34;;;;;;;;;1.00;0.40;;;;;18.00;69.50;99701.78;5088295;28;8830;-61
2022/10/26 09:09:02;;;;;;;;;1.00;0.80;;;;;17.97;69.55;99701.28;5087339;28;8838;-62
2022/10/26 09:11:30;;;;;;;;;1.00;1.00;;;;;17.94;69.75;99718.69;5088640;28;8822;-60
2022/10/26 09:13:58;;;;;;;;;1.00;1.00;;;;;17.93;69.63;99721.53;5089265;28;8861;-60
2022/10/26 09:16:26;;;;;;;;;1.00;1.00;;;;;17.93;69.46;99719.66;5088100;28;8842;-62
2022/10/26 09:18:54;;;;;;;;;3.00;1.00;;;;;17.90;69.27;99721.91;5088323;28;9541;-63
2022/10/26 09:21:29;;;;;;;;;1.80;1.00;;;;;17.82;69.35;99730.84;5089189;28;8830;-60
2022/10/26 09:23:56;;;;;;;;;1.00;1.00;;;;;17.82;69.34;99730.84;5089478;28;8830;-59
2022/10/26 09:26:24;;;;;;;;;1.00;1.00;;;;;17.87;69.32;99733.84;5089753;28;8880;-60
2022/10/26 09:28:52;;;;;;;;;3.80;3.00;;;;;17.96;69.59;99748.97;5089884;28;8914;-61
2022/10/26 09:31:20;;;;;;;;;0.00;0.00;;;;;18.06;68.88;99756.88;5089099;28;9757;-62
2022/10/26 09:33:48;;;;;;;;;1.40;1.00;;;;;18.12;68.58;99737.28;5089485;28;8968;-60
2022/10/26 09:36:16;;;;;;;;;1.00;1.00;;;;;18.13;68.73;99750.59;5091372;28;8964;-60
2022/10/26 09:38:44;;;;;;;;;3.00;3.00;;;;;18.17;69.18;99741.16;5091031;28;9157;-61
2022/10/26 09:41:12;;;;;;;;;1.40;1.40;;;;;18.23;69.01;99729.66;5089915;28;8841;-59
2022/10/26 09:43:40;;;;;;;;;1.80;1.00;;;;;18.32;68.09;99728.66;5089116;28;8830;-60
2022/10/26 09:46:09;;;;;;;;;1.00;1.00;;;;;18.44;68.73;99723.69;5087257;28;8869;-62
2022/10/26 09:48:37;;;;;;;;;1.00;1.00;;;;;18.63;67.92;99732.19;5087911;28;8814;-59
2022/10/26 09:51:04;;;;;;;;;1.80;1.80;;;;;19.01;66.82;99742.03;5091800;28;9204;-60
2022/10/26 09:53:32;;;;;;;;;1.40;1.40;;;;;19.65;65.00;99744.16;5093449;28;9511;-60
2022/10/26 09:56:00;;;;;;;;;2.40;1.00;;;;;20.42;64.02;99743.66;5094078;28;8841;-60
2022/10/26 09:58:28;;;;;;;;;3.60;3.40;;;;;21.25;61.85;99750.22;5094339;28;8857;-61
2022/10/26 10:00:56;;;;;;;;;1.00;1.00;;;;;21.46;61.50;99753.72;5092446;28;8846;-61
2022/10/26 10:03:24;;;;;;;;;1.00;1.00;;;;;21.41;61.63;99764.31;5092812;28;8838;-61
2022/10/26 10:05:52;;;;;;;;;2.00;1.00;;;;;21.89;60.47;99759.91;5093986;28;8829;-60
2022/10/26 10:08:21;;;;;;;;;2.00;2.00;;;;;22.63;59.06;99764.53;5093229;28;8857;-62
2022/10/26 10:10:50;;;;;;;;;1.40;1.00;;;;;23.33;57.89;99778.53;5092603;28;8848;-61
2022/10/26 10:13:18;;;;;;;;;1.00;1.00;;;;;23.02;58.10;99781.78;5092482;28;9151;-59
2022/10/26 10:15:45;;;;;;;;;1.00;1.00;;;;;22.41;59.25;99795.50;5091657;28;8829;-61
2022/10/26 10:18:13;;;;;;;;;3.60;3.60;;;;;21.92;60.16;99792.91;5092673;28;8877;-62
2022/10/26 10:20:41;;;;;;;;;2.40;2.40;;;;;21.49;61.76;99795.88;5090824;28;8826;-60
2022/10/26 10:23:10;;;;;;;;;2.00;2.00;;;;;21.25;62.18;99791.66;5089870;28;9734;-60
2022/10/26 10:25:38;;;;;;;;;1.20;1.20;;;;;21.27;61.64;99807.75;5091346;28;8850;-60
2022/10/26 10:28:06;;;;;;;;;2.00;2.00;;;;;21.33;61.65;99812.41;5091583;28;8896;-61
2022/10/26 10:30:34;;;;;;;;;3.20;2.00;;;;;21.41;61.56;99812.25;5091492;28;8984;-60
2022/10/26 10:33:02;;;;;;;;;3.20;2.00;;;;;21.22;61.76;99827.28;5091596;28;8830;-60
2022/10/26 10:35:30;;;;;;;;;4.00;4.00;;;;;21.12;62.07;99820.50;5092130;28;8953;-61
2022/10/26 10:37:58;;;;;;;;;1.00;1.00;;;;;21.46;61.73;99828.75;5092571;28;8852;-61
2022/10/26 10:40:26;;;;;;;;;2.00;2.00;;;;;21.66;61.01;99824.41;5092890;28;8845;-60
2022/10/26 10:42:54;;;;;;;;;5.00;4.20;;;;;21.76;60.79;99833.88;5092586;28;8826;-60
2022/10/26 10:45:22;;;;;;;;;3.60;3.60;;;;;21.64;61.15;99829.16;5092603;28;8834;-60
2022/10/26 10:47:50;;;;;;;;;1.80;1.60;;;;;21.60;60.74;99833.28;5094003;28;8922;-60
2022/10/26 10:50:18;;;;;;;;;2.40;1.60;;;;;21.46;61.26;99839.59;5093454;28;8926;-60
2022/10/26 10:52:46;;;;;;;;;2.80;2.00;;;;;21.36;61.65;99839.09;5091716;28;8830;-62
2022/10/26 10:55:14;;;;;;;;;2.00;2.00;;;;;21.34;61.46;99835.75;5092677;28;8829;-61
2022/10/26 10:57:42;;;;;;;;;4.00;2.80;;;;;21.36;61.85;99837.22;5092145;28;9016;-61
2022/10/26 11:00:11;;;;;;;;;0.00;0.00;;;;;21.41;62.03;99836.66;5093364;28;9562;-60
2022/10/26 11:02:38;;;;;;;;;4.00;4.00;;;;;21.46;62.04;99831.47;5092325;28;8829;-61
2022/10/26 11:05:06;;;;;;;;;2.80;2.80;;;;;21.65;62.16;99838.97;5092507;28;8885;-60
2022/10/26 11:07:34;;;;;;;;;2.80;2.80;;;;;21.91;61.14;99834.63;5092425;28;8853;-60
2022/10/26 11:10:03;;;;;;;;;2.40;2.40;;;;;22.14;60.20;99839.78;5091748;28;8830;-60
2022/10/26 11:12:31;;;;;;;;;3.60;3.20;;;;;22.19;60.59;99832.75;5092250;28;8846;-60
2022/10/26 11:14:59;;;;;;;;;4.00;4.00;;;;;22.22;59.91;99847.78;5091959;28;8825;-60
2022/10/26 11:17:27;;;;;;;;;3.60;3.60;;;;;22.28;59.82;99849.69;5091478;28;9580;-62
2022/10/26 11:19:55;;;;;;;;;0.00;0.00;;;;;22.17;60.07;99847.56;5090397;28;8855;-60
2022/10/26 11:22:23;;;;;;;;;4.20;3.20;;;;;21.99;60.30;99858.03;5091970;28;8856;-60
2022/10/26 11:24:51;;;;;;;;;2.00;2.00;;;;;21.85;60.50;99859.81;5091479;28;8868;-60
2022/10/26 11:27:19;;;;;;;;;4.00;4.00;;;;;21.66;60.83;99855.06;5091343;28;8850;-60
2022/10/26 11:29:47;;;;;;;;;3.20;2.00;;;;;21.49;61.25;99860.91;5090957;28;9557;-61
2022/10/26 11:32:15;;;;;;;;;1.00;1.00;;;;;21.38;62.11;99864.97;5090762;28;8860;-60
2022/10/26 11:34:43;;;;;;;;;1.80;1.80;;;;;21.28;62.75;99869.03;5091637;28;8822;-60
2022/10/26 11:37:12;;;;;;;;;1.60;1.60;;;;;21.22;62.42;99877.91;5091146;28;8980;-60
2022/10/26 11:39:39;;;;;;;;;2.80;2.00;;;;;21.20;62.35;99879.97;5091027;28;9439;-60
2022/10/26 11:42:07;;;;;;;;;4.00;4.00;;;;;21.21;62.82;99871.66;5092300;28;8845;-61
2022/10/26 11:44:36;;;;;;;;;2.00;1.80;;;;;21.22;62.16;99875.19;5091917;28;8930;-61